Time;durP1;ratioP1;P1;durP2;ratioP2;P2;SDS_P1;SDS_P2;PMS_P1;PMS_P2;Temp;Humidity;BMP_temperature;BMP_pressure;BME280_temperature;BME280_humidity;BME280_pressure;Samples;Min_cycle;Max_cycle;Signal;HPM_P1;HPM_P2
2024/02/15 00:00:22;;;;;;;21.63;7.43;;;;;;;13.95;100.00;101703.78;5284113;27;20426;-77
2024/02/15 00:02:53;;;;;;;24.88;7.45;;;;;;;13.93;100.00;101703.09;5281598;28;20106;-77
2024/02/15 00:05:23;;;;;;;22.92;7.28;;;;;;;13.87;100.00;101702.94;5272496;27;20130;-79
2024/02/15 00:07:54;;;;;;;18.30;6.72;;;;;;;13.95;100.00;101701.06;5279676;27;20023;-81
2024/02/15 00:10:24;;;;;;;19.17;6.72;;;;;;;13.93;100.00;101699.56;5282496;27;20087;-77
2024/02/15 00:12:55;;;;;;;26.10;7.20;;;;;;;13.91;100.00;101694.34;5285562;27;20419;-77
2024/02/15 00:15:25;;;;;;;17.08;5.85;;;;;;;13.87;100.00;101702.94;5280536;27;20426;-78
2024/02/15 00:17:56;;;;;;;20.45;6.50;;;;;;;13.82;100.00;101689.13;5286044;27;20063;-77
2024/02/15 00:20:26;;;;;;;21.02;5.85;;;;;;;13.88;100.00;101694.66;5282192;27;20224;-77
2024/02/15 00:22:57;;;;;;;21.90;6.22;;;;;;;13.86;100.00;101693.16;5281333;27;20118;-77
2024/02/15 00:25:27;;;;;;;14.80;6.05;;;;;;;13.84;100.00;101684.38;5286146;27;20020;-78
2024/02/15 00:28:00;;;;;;;18.42;5.78;;;;;;;13.78;100.00;101683.19;5284608;27;20016;-78
2024/02/15 00:30:31;;;;;;;13.57;5.35;;;;;;;13.71;100.00;101680.34;5281422;28;20400;-79
2024/02/15 00:33:02;;;;;;;26.17;5.90;;;;;;;13.71;100.00;101680.34;5282943;27;20023;-79
2024/02/15 00:35:33;;;;;;;16.50;5.78;;;;;;;13.63;100.00;101679.47;5283321;27;20046;-77
2024/02/15 00:38:03;;;;;;;17.63;4.88;;;;;;;13.77;100.00;101681.53;5279548;27;20099;-77
2024/02/15 00:40:34;;;;;;;18.55;5.40;;;;;;;13.90;100.00;101678.31;5284620;28;20468;-80
2024/02/15 00:43:05;;;;;;;21.05;4.70;;;;;;;13.91;100.00;101678.16;5285534;27;20015;-77
2024/02/15 00:45:35;;;;;;;19.55;4.93;;;;;;;13.93;100.00;101683.38;5283873;28;20024;-77
2024/02/15 00:48:06;;;;;;;17.80;5.10;;;;;;;13.98;100.00;101686.41;5281169;27;20425;-77
2024/02/15 00:50:37;;;;;;;23.23;5.80;;;;;;;13.99;100.00;101672.75;5279402;28;20109;-79
2024/02/15 00:53:07;;;;;;;12.40;4.97;;;;;;;13.87;100.00;101675.97;5275990;27;20027;-77
2024/02/15 00:55:38;;;;;;;12.95;5.20;;;;;;;13.92;100.00;101676.31;5278472;28;20023;-80
2024/02/15 00:58:08;;;;;;;12.75;4.78;;;;;;;13.94;100.00;101668.88;5283104;27;20019;-77
2024/02/15 01:00:39;;;;;;;14.77;4.63;;;;;;;13.97;100.00;101669.41;5280214;28;20026;-77
2024/02/15 01:03:09;;;;;;;23.27;5.80;;;;;;;13.99;100.00;101666.53;5280720;28;20492;-77
2024/02/15 01:05:40;;;;;;;16.50;4.80;;;;;;;13.90;100.00;101664.81;5277054;27;20104;-77
2024/02/15 01:08:11;;;;;;;17.17;4.57;;;;;;;13.96;100.00;101656.94;5285205;27;20019;-80
2024/02/15 01:10:41;;;;;;;15.88;5.07;;;;;;;13.96;100.00;101662.31;5281281;27;20026;-77
2024/02/15 01:13:12;;;;;;;17.20;4.93;;;;;;;14.02;100.00;101660.81;5282136;27;20019;-77
2024/02/15 01:15:42;;;;;;;16.38;4.88;;;;;;;13.96;100.00;101656.09;5281886;28;20027;-77
2024/02/15 01:18:14;;;;;;;18.42;4.50;;;;;;;13.98;100.00;101652.19;5279285;27;20023;-77
2024/02/15 01:20:45;;;;;;;16.92;4.72;;;;;;;14.00;100.00;101643.91;5280346;28;20083;-77
2024/02/15 01:23:15;;;;;;;15.60;4.60;;;;;;;13.94;100.00;101647.28;5276844;27;20028;-77
2024/02/15 01:25:45;;;;;;;19.15;4.68;;;;;;;13.91;100.00;101653.88;5281904;27;20165;-77
2024/02/15 01:28:16;;;;;;;20.25;4.95;;;;;;;13.89;100.00;101652.34;5277955;28;20069;-77
2024/02/15 01:30:46;;;;;;;15.00;4.40;;;;;;;13.89;100.00;101655.91;5283181;28;20114;-77
2024/02/15 01:33:17;;;;;;;13.88;4.60;;;;;;;13.96;100.00;101650.69;5282974;28;20026;-79
2024/02/15 01:35:48;;;;;;;17.75;3.97;;;;;;;14.06;100.00;101645.97;5278350;28;20077;-77
2024/02/15 01:38:19;;;;;;;13.75;4.88;;;;;;;14.07;100.00;101653.03;5281883;28;20046;-77
2024/02/15 01:40:49;;;;;;;16.85;4.50;;;;;;;14.12;100.00;101642.59;5276929;28;20051;-78
2024/02/15 01:43:19;;;;;;;18.00;4.55;;;;;;;14.06;100.00;101639.72;5276678;28;20027;-77
2024/02/15 01:45:51;;;;;;;9.80;3.67;;;;;;;14.08;100.00;101633.13;5281067;27;20035;-79
2024/02/15 01:48:21;;;;;;;14.38;3.95;;;;;;;14.07;100.00;101631.44;5280408;28;20508;-80
2024/02/15 01:50:52;;;;;;;15.45;4.88;;;;;;;14.07;100.00;101634.16;5280286;28;20015;-77
2024/02/15 01:53:23;;;;;;;15.77;4.15;;;;;;;14.05;100.00;101627.22;5278594;28;20493;-77
2024/02/15 01:55:57;;;;;;;10.38;3.58;;;;;;;14.02;100.00;101617.63;5278730;28;20065;-78
2024/02/15 01:58:31;;;;;;;9.40;3.55;;;;;;;14.06;100.00;101612.75;5282097;28;20031;-78
2024/02/15 02:01:04;;;;;;;10.63;3.55;;;;;;;14.02;100.00;101623.03;5277772;28;20035;-77
2024/02/15 02:03:35;;;;;;;13.25;3.25;;;;;;;14.06;100.00;101620.84;5283685;28;20028;-80
2024/02/15 02:06:07;;;;;;;14.18;3.17;;;;;;;14.03;100.00;101613.91;5289080;28;20031;-77
2024/02/15 02:08:37;;;;;;;20.00;3.58;;;;;;;13.98;100.00;101605.50;5285260;27;20487;-77
2024/02/15 02:11:14;;;;;;;11.57;3.60;;;;;;;14.00;100.00;101614.25;5286675;28;20023;-77
2024/02/15 02:13:46;;;;;;;13.98;3.20;;;;;;;14.08;100.00;101619.63;5283233;28;20024;-78
2024/02/15 02:16:35;;;;;;;14.82;3.47;;;;;;;14.07;100.00;101617.13;5284430;27;20081;-80
2024/02/15 02:19:08;;;;;;;7.53;2.80;;;;;;;14.10;100.00;101624.84;5283606;27;20023;-78
2024/02/15 02:21:39;;;;;;;18.73;3.40;;;;;;;14.18;100.00;101624.84;5286070;27;20024;-77
2024/02/15 02:24:14;;;;;;;7.80;3.10;;;;;;;14.12;100.00;101626.38;5289533;27;20027;-80
2024/02/15 02:26:44;;;;;;;11.80;2.80;;;;;;;14.03;100.00;101616.63;5284401;27;20024;-77
2024/02/15 02:29:16;;;;;;;12.38;3.25;;;;;;;14.06;100.00;101618.97;5289054;27;20072;-77
2024/02/15 02:31:51;;;;;;;18.55;4.40;;;;;;;14.08;100.00;101611.56;5288779;27;20024;-77
2024/02/15 02:34:22;;;;;;;16.55;3.55;;;;;;;14.12;100.00;101609.34;5287053;27;20479;-77
2024/02/15 02:36:52;;;;;;;14.75;3.15;;;;;;;14.05;100.00;101613.72;5287642;27;20027;-80
2024/02/15 02:39:23;;;;;;;18.55;4.05;;;;;;;13.99;100.00;101601.78;5283621;27;20026;-77
2024/02/15 02:41:53;;;;;;;15.18;3.78;;;;;;;13.95;100.00;101598.56;5286913;27;20050;-77
2024/02/15 02:44:24;;;;;;;14.07;3.58;;;;;;;13.92;100.00;101601.63;5287445;27;20630;-77
2024/02/15 02:46:55;;;;;;;12.23;3.15;;;;;;;13.95;100.00;101603.97;5288605;27;20069;-79
2024/02/15 02:49:25;;;;;;;20.30;4.22;;;;;;;13.91;100.00;101608.03;5284420;27;20023;-78
2024/02/15 02:51:56;;;;;;;15.27;3.60;;;;;;;13.92;100.00;101600.78;5287261;27;20031;-77
2024/02/15 02:54:29;;;;;;;25.20;3.70;;;;;;;13.88;100.00;101602.97;5282950;27;20057;-78
2024/02/15 02:56:59;;;;;;;15.27;3.03;;;;;;;13.78;100.00;101601.47;5283659;27;20020;-77
2024/02/15 02:59:30;;;;;;;15.43;3.35;;;;;;;13.79;100.00;101605.84;5287763;28;20138;-78
2024/02/15 03:02:10;;;;;;;13.85;3.35;;;;;;;13.76;100.00;101595.41;5280893;27;20042;-79
2024/02/15 03:04:41;;;;;;;11.00;3.58;;;;;;;13.77;100.00;101591.69;5285625;27;20023;-81
2024/02/15 03:07:17;;;;;;;15.50;3.42;;;;;;;13.71;100.00;101594.06;5281319;27;20098;-77
2024/02/15 03:09:47;;;;;;;11.50;3.72;;;;;;;13.78;100.00;101604.16;5283337;28;20023;-83
2024/02/15 03:12:18;;;;;;;24.98;3.88;;;;;;;13.64;100.00;101593.03;5286455;27;20011;-77
2024/02/15 03:14:49;;;;;;;19.30;3.78;;;;;;;13.65;100.00;101589.31;5280296;28;20023;-77
2024/02/15 03:17:19;;;;;;;14.70;3.67;;;;;;;13.60;100.00;101590.81;5286364;27;20012;-79
2024/02/15 03:19:50;;;;;;;15.90;3.47;;;;;;;13.57;100.00;101586.63;5277454;27;20043;-78
2024/02/15 03:22:23;;;;;;;16.77;4.05;;;;;;;13.50;100.00;101585.59;5284316;27;20107;-77
2024/02/15 03:24:54;;;;;;;12.05;3.58;;;;;;;13.42;100.00;101591.84;5281482;28;20016;-77
2024/02/15 03:27:25;;;;;;;20.55;3.55;;;;;;;13.41;100.00;101592.84;5283805;27;20028;-76
2024/02/15 03:29:57;;;;;;;14.57;3.95;;;;;;;13.38;100.00;101587.78;5283232;28;20427;-78
2024/02/15 03:32:27;;;;;;;19.42;3.63;;;;;;;13.41;100.00;101592.00;5280527;28;20028;-79
2024/02/15 03:35:00;;;;;;;13.13;4.15;;;;;;;13.38;100.00;101598.56;5281777;27;20420;-78
2024/02/15 03:37:33;;;;;;;21.20;3.90;;;;;;;13.41;100.00;101589.31;5286049;28;20027;-80
2024/02/15 03:40:04;;;;;;;14.30;3.53;;;;;;;13.43;100.00;101588.13;5282834;28;20450;-78
2024/02/15 03:42:36;;;;;;;12.25;4.50;;;;;;;13.46;100.00;101579.72;5285143;28;20102;-77
2024/02/15 03:45:08;;;;;;;14.55;3.83;;;;;;;13.43;100.00;101581.91;5284256;28;20104;-78
2024/02/15 03:47:38;;;;;;;17.60;4.63;;;;;;;13.32;100.00;101576.84;5279655;28;20035;-78
2024/02/15 03:50:09;;;;;;;19.85;3.97;;;;;;;13.21;100.00;101570.75;5287836;27;20419;-77
2024/02/15 03:52:41;;;;;;;18.65;3.95;;;;;;;13.16;100.00;101569.53;5290834;27;20452;-79
2024/02/15 03:55:12;;;;;;;21.35;4.10;;;;;;;13.17;100.00;101569.38;5291265;27;20587;-78
2024/02/15 03:57:44;;;;;;;9.25;3.85;;;;;;;13.18;100.00;101567.50;5290644;27;20362;-77
2024/02/15 04:00:20;;;;;;;10.48;3.20;;;;;;;13.20;100.00;101563.66;5287031;27;20031;-77
2024/02/15 04:02:50;;;;;;;18.63;4.10;;;;;;;13.17;100.00;101560.44;5288280;27;20093;-77
2024/02/15 04:05:21;;;;;;;14.38;3.50;;;;;;;13.29;100.00;101558.28;5286062;27;20114;-77
2024/02/15 04:07:53;;;;;;;17.08;3.50;;;;;;;13.41;100.00;101560.50;5290152;27;20034;-77
2024/02/15 04:10:23;;;;;;;18.30;4.30;;;;;;;13.33;100.00;101548.88;5286872;27;20016;-77
2024/02/15 04:12:54;;;;;;;10.48;3.92;;;;;;;13.28;100.00;101556.63;5287900;27;20430;-77
2024/02/15 04:15:25;;;;;;;13.75;3.95;;;;;;;13.36;100.00;101546.69;5283379;27;20023;-78
2024/02/15 04:17:56;;;;;;;12.13;3.97;;;;;;;13.42;100.00;101548.72;5285838;27;20098;-77
2024/02/15 04:20:27;;;;;;;12.85;3.80;;;;;;;13.42;100.00;101548.72;5293989;27;20041;-78
2024/02/15 04:22:59;;;;;;;11.57;3.47;;;;;;;13.45;100.00;101552.91;5277764;27;20086;-77
2024/02/15 04:25:31;;;;;;;11.85;3.30;;;;;;;13.39;100.00;101551.72;5295689;27;20574;-77
2024/02/15 04:28:03;;;;;;;19.52;4.32;;;;;;;13.40;100.00;101550.75;5286893;27;20449;-78
2024/02/15 04:30:34;;;;;;;12.90;3.08;;;;;;;13.32;100.00;101541.81;5283272;27;20038;-77
2024/02/15 04:33:05;;;;;;;12.30;3.30;;;;;;;13.34;100.00;101540.63;5288934;27;20080;-78
2024/02/15 04:35:35;;;;;;;14.45;3.45;;;;;;;13.28;100.00;101549.38;5277179;27;20027;-77
2024/02/15 04:38:08;;;;;;;15.38;3.55;;;;;;;13.39;100.00;101550.88;5282540;28;20096;-77
2024/02/15 04:40:39;;;;;;;17.67;3.55;;;;;;;13.32;100.00;101550.72;5282577;28;20022;-77
2024/02/15 04:43:09;;;;;;;11.88;3.53;;;;;;;13.30;100.00;101547.34;5287622;27;20028;-77
2024/02/15 04:45:41;;;;;;;13.15;3.83;;;;;;;13.36;100.00;101562.03;5290798;27;20117;-78
2024/02/15 04:48:14;;;;;;;19.27;3.90;;;;;;;13.40;100.00;101552.56;5291497;27;20035;-78
2024/02/15 04:50:45;;;;;;;13.63;3.40;;;;;;;13.37;100.00;101553.75;5283690;27;20023;-77
2024/02/15 04:53:15;;;;;;;20.25;4.05;;;;;;;13.36;100.00;101567.41;5291959;27;20101;-80
2024/02/15 04:55:45;;;;;;;15.35;3.38;;;;;;;13.36;100.00;101554.78;5287595;27;20617;-78
2024/02/15 04:58:16;;;;;;;11.18;3.58;;;;;;;13.23;100.00;101558.97;5294428;27;20016;-78
2024/02/15 05:00:48;;;;;;;11.73;3.47;;;;;;;13.34;100.00;101558.63;5289787;27;20107;-77
2024/02/15 05:03:19;;;;;;;16.13;3.65;;;;;;;13.29;100.00;101553.75;5281772;27;20071;-77
2024/02/15 05:05:50;;;;;;;11.52;3.22;;;;;;;13.28;100.00;101553.91;5287949;27;20027;-81
2024/02/15 05:08:20;;;;;;;19.88;3.83;;;;;;;13.35;100.00;101553.06;5286575;27;20485;-78
2024/02/15 05:10:56;;;;;;;17.20;3.60;;;;;;;13.34;100.00;101548.69;5286836;27;20035;-78
2024/02/15 05:13:26;;;;;;;6.80;3.30;;;;;;;13.35;100.00;101550.38;5285639;27;20445;-78
2024/02/15 05:15:57;;;;;;;11.65;2.90;;;;;;;13.24;100.00;101548.00;5284260;27;20106;-78
2024/02/15 05:18:28;;;;;;;11.82;3.58;;;;;;;13.25;100.00;101533.53;5284447;28;20015;-79
2024/02/15 05:20:58;;;;;;;13.52;3.45;;;;;;;13.22;100.00;101531.19;5282971;27;20107;-78
2024/02/15 05:23:29;;;;;;;15.35;4.03;;;;;;;13.24;100.00;101522.91;5277368;28;20027;-78
2024/02/15 05:25:59;;;;;;;10.68;3.10;;;;;;;13.20;100.00;101512.47;5289753;27;20026;-77
2024/02/15 05:28:30;;;;;;;13.43;3.40;;;;;;;13.19;100.00;101516.16;5282612;28;20027;-80
2024/02/15 05:31:11;;;;;;;12.60;3.42;;;;;;;13.13;100.00;101507.91;5284589;27;20496;-77
2024/02/15 05:33:43;;;;;;;20.40;3.95;;;;;;;13.26;100.00;101510.16;5283660;28;20074;-78
2024/02/15 05:36:15;;;;;;;10.63;3.63;;;;;;;13.31;100.00;101502.41;5283645;27;20025;-79
2024/02/15 05:38:47;;;;;;;10.02;2.92;;;;;;;13.26;100.00;101507.44;5282224;28;20023;-77
2024/02/15 05:41:19;;;;;;;11.80;3.15;;;;;;;13.29;100.00;101504.41;5281047;28;20063;-78
2024/02/15 05:43:52;;;;;;;11.32;3.70;;;;;;;13.26;100.00;101502.06;5283318;28;20024;-77
2024/02/15 05:46:22;;;;;;;9.30;3.17;;;;;;;13.28;100.00;101500.03;5285731;27;20019;-80
2024/02/15 05:48:53;;;;;;;10.85;3.17;;;;;;;13.25;100.00;101479.63;5282678;27;20068;-77
2024/02/15 05:51:24;;;;;;;13.50;3.30;;;;;;;13.25;100.00;101486.88;5287013;27;20026;-77
2024/02/15 05:53:58;;;;;;;10.05;3.35;;;;;;;13.21;100.00;101483.66;5281231;28;20081;-80
2024/02/15 05:56:29;;;;;;;10.52;3.63;;;;;;;13.18;100.00;101486.69;5282871;28;20030;-77
2024/02/15 05:59:02;;;;;;;11.40;3.58;;;;;;;13.18;100.00;101478.59;5284329;28;20016;-77
2024/02/15 06:01:32;;;;;;;14.43;3.70;;;;;;;13.14;100.00;101482.63;5276734;28;20035;-77
2024/02/15 06:04:04;;;;;;;18.17;3.92;;;;;;;13.09;100.00;101482.28;5272460;28;20469;-77
2024/02/15 06:06:35;;;;;;;8.07;3.65;;;;;;;13.05;100.00;101479.13;5289717;28;20028;-77
2024/02/15 06:09:05;;;;;;;11.30;4.07;;;;;;;13.09;100.00;101490.38;5279548;27;20027;-77
2024/02/15 06:11:37;;;;;;;15.55;4.00;;;;;;;13.06;100.00;101485.34;5280777;28;20306;-77
2024/02/15 06:14:07;;;;;;;15.27;4.22;;;;;;;13.04;100.00;101484.66;5285298;28;20027;-77
2024/02/15 06:16:43;;;;;;;14.43;4.10;;;;;;;13.04;100.00;101485.50;5278672;28;20016;-77
2024/02/15 06:19:14;;;;;;;14.75;3.70;;;;;;;13.07;100.00;101482.47;5278522;28;20018;-77
2024/02/15 06:21:44;;;;;;;14.40;4.35;;;;;;;13.10;100.00;101487.53;5276514;28;20448;-77
2024/02/15 06:24:15;;;;;;;20.13;4.40;;;;;;;13.09;100.00;101485.84;5288531;27;20050;-77
2024/02/15 06:26:46;;;;;;;17.27;5.45;;;;;;;13.15;100.00;101489.69;5282905;27;20027;-77
2024/02/15 06:40:33;;;;;;;19.15;4.57;;;;;;;13.07;100.00;101484.31;5289356;28;20023;-77
2024/02/15 06:43:03;;;;;;;15.15;4.03;;;;;;;13.07;100.00;101482.47;5282620;28;20022;-77
2024/02/15 06:45:35;;;;;;;9.20;4.00;;;;;;;13.11;100.00;101481.13;5279066;28;20114;-77
2024/02/15 06:48:07;;;;;;;17.20;3.80;;;;;;;13.01;100.00;101480.47;5291022;27;20016;-77
2024/02/15 06:50:38;;;;;;;20.50;3.65;;;;;;;13.08;100.00;101472.53;5287353;27;20394;-77
2024/02/15 06:53:08;;;;;;;13.15;3.88;;;;;;;13.03;100.00;101472.19;5289474;27;20016;-77
2024/02/15 06:55:40;;;;;;;15.10;3.50;;;;;;;13.06;100.00;101463.78;5286782;27;20030;-77
2024/02/15 06:58:12;;;;;;;13.88;3.97;;;;;;;12.99;100.00;101469.00;5290746;27;20031;-77
2024/02/15 07:00:43;;;;;;;14.55;4.45;;;;;;;13.00;100.00;101453.66;5293455;27;20388;-77
2024/02/15 07:03:16;;;;;;;19.02;4.35;;;;;;;12.97;100.00;101454.84;5289264;27;20064;-77
2024/02/15 07:05:47;;;;;;;15.75;4.88;;;;;;;13.01;100.00;101453.53;5286883;27;20030;-77
2024/02/15 07:08:17;;;;;;;18.77;4.75;;;;;;;13.13;100.00;101459.41;5287094;27;20043;-78
2024/02/15 07:10:48;;;;;;;12.30;4.90;;;;;;;13.07;100.00;101460.09;5288928;27;20019;-78
2024/02/15 07:13:19;;;;;;;19.42;4.85;;;;;;;13.11;100.00;101464.13;5287153;27;20027;-77
2024/02/15 07:15:49;;;;;;;21.80;5.50;;;;;;;13.03;100.00;101469.50;5293780;27;20027;-77
2024/02/15 07:18:22;;;;;;;15.68;4.80;;;;;;;13.12;100.00;101472.03;5288852;27;20050;-78
2024/02/15 07:20:53;;;;;;;12.57;4.22;;;;;;;13.18;100.00;101475.91;5285987;27;20357;-79
2024/02/15 07:23:23;;;;;;;18.52;5.10;;;;;;;13.26;100.00;101481.34;5285467;27;20024;-77
2024/02/15 07:25:54;;;;;;;16.08;4.50;;;;;;;13.30;100.00;101493.44;5291032;27;20027;-77
2024/02/15 07:28:26;;;;;;;11.52;4.18;;;;;;;13.28;100.00;101494.63;5287022;27;20030;-78
2024/02/15 07:30:56;;;;;;;10.40;4.15;;;;;;;13.30;100.00;101498.84;5285304;27;20477;-78
2024/02/15 07:33:28;;;;;;;12.65;3.78;;;;;;;13.35;100.00;101498.34;5285299;27;20026;-78
2024/02/15 07:35:59;;;;;;;13.63;4.38;;;;;;;13.37;100.00;101501.72;5286810;27;20461;-77
2024/02/15 07:38:34;;;;;;;20.60;5.10;;;;;;;13.38;100.00;101495.31;5289584;27;20106;-77
2024/02/15 07:41:05;;;;;;;16.90;3.70;;;;;;;13.42;100.00;101496.66;5284984;27;20050;-77
2024/02/15 07:43:35;;;;;;;13.18;4.55;;;;;;;13.45;100.00;101496.31;5293578;27;20084;-78
2024/02/15 07:46:06;;;;;;;14.48;4.60;;;;;;;13.42;100.00;101494.81;5286713;27;20222;-77
2024/02/15 07:48:38;;;;;;;12.38;5.18;;;;;;;13.41;100.00;101495.81;5287388;27;20023;-78
2024/02/15 07:51:09;;;;;;;15.40;5.55;;;;;;;13.41;100.00;101485.03;5285286;27;20606;-77
2024/02/15 07:53:40;;;;;;;14.30;4.50;;;;;;;13.43;100.00;101488.41;5286716;27;20481;-77
2024/02/15 07:56:12;;;;;;;8.35;3.28;;;;;;;13.41;100.00;101484.22;5285617;27;20484;-80
2024/02/15 07:58:51;;;;;;;14.00;3.53;;;;;;;13.36;100.00;101476.63;5290436;27;20384;-77
2024/02/15 08:01:22;;;;;;;17.98;3.50;;;;;;;13.50;100.00;101493.94;5288064;27;20111;-81
2024/02/15 08:03:52;;;;;;;11.80;3.17;;;;;;;13.47;100.00;101486.22;5284819;27;20106;-76
2024/02/15 08:06:25;;;;;;;7.35;2.60;;;;;;;13.54;100.00;101484.50;5286379;27;20429;-80
2024/02/15 08:08:56;;;;;;;11.30;2.97;;;;;;;13.58;100.00;101482.31;5288918;27;20047;-77
2024/02/15 08:11:26;;;;;;;11.20;2.92;;;;;;;13.57;100.00;101486.88;5289773;27;20459;-77
2024/02/15 08:13:59;;;;;;;7.13;2.90;;;;;;;13.60;100.00;101472.19;5290435;27;20431;-77
2024/02/15 08:16:29;;;;;;;11.27;3.38;;;;;;;13.57;100.00;101478.78;5281405;28;20030;-80
2024/02/15 08:19:01;;;;;;;9.75;2.70;;;;;;;13.48;100.00;101480.66;5286469;27;20027;-79
2024/02/15 08:21:33;;;;;;;10.30;2.58;;;;;;;13.68;100.00;101464.94;5287451;27;20080;-80
2024/02/15 08:24:05;;;;;;;11.65;3.08;;;;;;;13.74;100.00;101475.03;5287983;27;20438;-78
2024/02/15 08:26:37;;;;;;;7.93;2.67;;;;;;;13.77;100.00;101476.56;5287270;27;20015;-80
2024/02/15 08:29:10;;;;;;;8.63;2.50;;;;;;;13.84;100.00;101471.31;5286601;27;20030;-77
2024/02/15 08:31:41;;;;;;;11.25;2.50;;;;;;;13.82;100.00;101470.66;5285173;27;20023;-78
2024/02/15 08:34:14;;;;;;;4.53;2.22;;;;;;;13.93;100.00;101462.19;5286873;27;20733;-81
2024/02/15 08:36:44;;;;;;;9.98;2.40;;;;;;;13.97;100.00;101466.25;5287289;27;20012;-77
2024/02/15 08:39:16;;;;;;;12.27;2.38;;;;;;;14.05;100.00;101471.59;5282521;27;20500;-77
2024/02/15 08:41:47;;;;;;;11.52;2.63;;;;;;;14.10;100.00;101460.28;5285903;27;20084;-77
2024/02/15 08:44:19;;;;;;;7.15;2.70;;;;;;;14.33;100.00;101473.84;5285516;27;20027;-77
2024/02/15 08:46:49;;;;;;;12.43;2.45;;;;;;;14.32;100.00;101466.78;5287597;27;20038;-78
2024/02/15 08:49:20;;;;;;;8.80;2.15;;;;;;;14.36;100.00;101473.50;5289192;27;20027;-78
2024/02/15 08:51:51;;;;;;;9.68;2.33;;;;;;;14.40;100.00;101470.25;5283839;27;20135;-78
2024/02/15 08:54:21;;;;;;;6.68;1.80;;;;;;;14.41;100.00;101481.94;5283635;27;20030;-78
2024/02/15 08:56:52;;;;;;;7.95;1.95;;;;;;;14.33;100.00;101477.41;5286550;27;20024;-76
2024/02/15 08:59:22;;;;;;;10.20;2.50;;;;;;;14.48;100.00;101472.13;5286182;27;20019;-78
2024/02/15 09:01:54;;;;;;;4.55;1.85;;;;;;;14.62;100.00;101479.47;5284273;27;20389;-78
2024/02/15 09:04:26;;;;;;;6.68;2.08;;;;;;;14.57;100.00;101476.47;5279469;28;20030;-78
2024/02/15 09:06:56;;;;;;;5.28;2.17;;;;;;;14.64;100.00;101476.59;5284655;27;20031;-80
2024/02/15 09:09:27;;;;;;;6.30;1.65;;;;;;;14.81;100.00;101471.91;5282644;27;20028;-78
2024/02/15 09:11:58;;;;;;;5.75;1.95;;;;;;;14.70;100.00;101476.72;5279724;27;21473;-78
2024/02/15 09:14:28;;;;;;;8.02;2.35;;;;;;;14.76;100.00;101467.91;5286176;27;20400;-80
2024/02/15 09:17:00;;;;;;;15.52;2.22;;;;;;;14.92;100.00;101474.22;5281927;27;20012;-78
2024/02/15 09:19:30;;;;;;;9.65;2.22;;;;;;;14.96;100.00;101470.13;5284457;27;20050;-77
2024/02/15 09:22:04;;;;;;;9.43;1.70;;;;;;;14.95;100.00;101463.88;5279793;27;20480;-78
2024/02/15 09:24:34;;;;;;;3.47;1.80;;;;;;;14.97;100.00;101474.53;5282474;28;20104;-77
2024/02/15 09:27:05;;;;;;;10.20;1.88;;;;;;;15.10;100.00;101474.75;5286049;27;20139;-79
2024/02/15 09:29:35;;;;;;;10.15;2.03;;;;;;;15.16;100.00;101465.94;5275666;28;20020;-77
2024/02/15 09:32:07;;;;;;;7.78;2.30;;;;;;;15.26;100.00;101466.53;5286388;27;20156;-77
2024/02/15 09:34:37;;;;;;;9.18;1.30;;;;;;;15.22;100.00;101464.38;5279470;27;20030;-78
2024/02/15 09:37:08;;;;;;;8.45;1.67;;;;;;;15.45;100.00;101464.31;5283558;28;20477;-77
2024/02/15 09:39:38;;;;;;;4.82;1.70;;;;;;;15.39;100.00;101465.06;5284256;27;20027;-77
2024/02/15 09:42:09;;;;;;;9.32;2.47;;;;;;;15.44;100.00;101451.84;5284377;27;20023;-77
2024/02/15 09:44:40;;;;;;;10.55;3.58;;;;;;;15.62;100.00;101455.06;5282111;28;20054;-79
2024/02/15 09:47:12;;;;;;;12.90;4.65;;;;;;;15.78;100.00;101454.06;5282673;28;20208;-77
2024/02/15 09:49:43;;;;;;;9.23;3.70;;;;;;;15.99;100.00;101453.31;5282107;28;20099;-77
2024/02/15 09:52:17;;;;;;;6.90;1.60;;;;;;;15.99;100.00;101453.31;5279315;28;20148;-80
2024/02/15 09:54:48;;;;;;;9.35;1.50;;;;;;;16.03;100.00;101446.50;5283124;27;20433;-77
2024/02/15 09:57:20;;;;;;;7.65;1.67;;;;;;;15.99;100.00;101450.63;5282827;28;20012;-77
2024/02/15 09:59:52;;;;;;;7.35;1.88;;;;;;;16.01;100.00;101449.41;5283158;28;20048;-80
2024/02/15 10:02:24;;;;;;;7.25;2.03;;;;;;;15.97;100.00;101447.28;5282215;28;20034;-77
2024/02/15 10:05:00;;;;;;;6.93;1.85;;;;;;;15.84;100.00;101441.66;5282476;28;20476;-77
2024/02/15 10:07:30;;;;;;;6.90;2.08;;;;;;;15.78;100.00;101437.84;5284948;28;20019;-77
2024/02/15 10:10:21;;;;;;;4.75;1.55;;;;;;;15.85;100.00;101441.47;5263364;28;20031;-79
2024/02/15 10:12:54;;;;;;;8.82;1.58;;;;;;;15.94;100.00;101434.09;5281638;28;20027;-77
2024/02/15 10:15:35;;;;;;;4.05;1.27;;;;;;;16.02;100.00;101436.72;5281529;28;20098;-77
2024/02/15 10:18:10;;;;;;;5.10;1.70;;;;;;;16.06;100.00;101440.72;5278871;28;20024;-80
2024/02/15 10:20:44;;;;;;;4.38;1.42;;;;;;;16.06;100.00;101440.72;5279488;28;20019;-77
2024/02/15 10:23:20;;;;;;;7.60;1.95;;;;;;;16.02;100.00;101434.84;5282847;28;20537;-77
2024/02/15 10:25:55;;;;;;;10.40;1.67;;;;;;;16.06;100.00;101429.88;5285034;28;20388;-77
2024/02/15 10:28:27;;;;;;;8.82;2.10;;;;;;;16.16;100.00;101437.72;5284479;28;20616;-77
2024/02/15 10:31:08;;;;;;;9.25;1.67;;;;;;;16.04;100.00;101430.06;5283436;28;20080;-80
2024/02/15 10:33:39;;;;;;;6.45;1.90;;;;;;;16.19;100.00;101430.06;5286865;28;20015;-77
2024/02/15 10:36:11;;;;;;;10.85;2.60;;;;;;;16.25;100.00;101433.88;5286320;28;20686;-77
2024/02/15 10:38:42;;;;;;;14.50;3.28;;;;;;;16.21;100.00;101432.56;5286815;27;20025;-77
2024/02/15 10:41:12;;;;;;;9.93;3.25;;;;;;;16.30;100.00;101436.84;5285637;27;20015;-80
2024/02/15 10:43:45;;;;;;;10.00;3.03;;;;;;;16.46;100.00;101433.09;5289318;27;20034;-77
2024/02/15 10:46:17;;;;;;;12.20;3.08;;;;;;;16.41;100.00;101436.34;5291441;27;20011;-77
2024/02/15 10:48:47;;;;;;;10.80;3.35;;;;;;;16.49;100.00;101432.72;5284039;27;20019;-77
2024/02/15 10:51:18;;;;;;;9.57;2.83;;;;;;;16.45;100.00;101428.69;5287209;27;20024;-78
2024/02/15 10:54:04;;;;;;;10.88;2.80;;;;;;;16.38;100.00;101425.09;5286159;27;20472;-80
2024/02/15 10:56:40;;;;;;;8.93;2.58;;;;;;;16.33;100.00;101428.38;5289905;27;20024;-77
2024/02/15 10:59:17;;;;;;;8.25;2.10;;;;;;;16.35;100.00;101412.75;5289614;27;20092;-79
2024/02/15 11:01:50;;;;;;;6.78;2.85;;;;;;;16.42;100.00;101412.84;5284929;27;20019;-77
2024/02/15 11:04:22;;;;;;;4.20;1.58;;;;;;;16.50;100.00;101410.00;5283462;27;20031;-77
2024/02/15 11:06:55;;;;;;;9.00;2.15;;;;;;;16.64;100.00;101403.72;5283467;27;20027;-80
2024/02/15 11:09:28;;;;;;;8.13;1.90;;;;;;;16.75;100.00;101392.38;5290464;27;20031;-77
2024/02/15 11:12:00;;;;;;;4.57;1.80;;;;;;;16.69;100.00;101395.00;5285477;27;20023;-79
2024/02/15 11:14:33;;;;;;;9.23;2.30;;;;;;;17.04;100.00;101394.13;5288092;27;20019;-81
2024/02/15 11:17:06;;;;;;;8.52;1.95;;;;;;;17.22;100.00;101387.38;5284460;27;20484;-77
2024/02/15 11:19:36;;;;;;;13.77;2.38;;;;;;;17.28;100.00;101376.59;5285449;27;20568;-78
2024/02/15 11:22:10;;;;;;;8.02;1.75;;;;;;;17.31;100.00;101375.34;5284678;27;20023;-80
2024/02/15 11:24:47;;;;;;;6.10;2.03;;;;;;;17.48;100.00;101365.88;5282934;27;20099;-77
2024/02/15 11:27:27;;;;;;;5.03;1.65;;;;;;;17.59;100.00;101368.03;5282187;27;20011;-77
2024/02/15 11:30:09;;;;;;;7.70;1.60;;;;;;;17.69;100.00;101364.94;5284779;27;20027;-80
2024/02/15 11:32:49;;;;;;;3.90;1.77;;;;;;;17.70;100.00;101355.75;5287198;27;20058;-79
2024/02/15 11:35:22;;;;;;;4.78;1.90;;;;;;;17.85;100.00;101355.66;5286173;27;20030;-80
2024/02/15 11:37:59;;;;;;;3.90;1.52;;;;;;;17.94;100.00;101348.19;5285850;27;20522;-77
2024/02/15 11:40:41;;;;;;;4.95;1.50;;;;;;;17.94;100.00;101338.16;5287998;27;20057;-78
2024/02/15 11:43:44;;;;;;;4.93;1.90;;;;;;;17.89;100.00;101331.69;5284701;27;20028;-76